PWSweather.com
Personal Weather Stations
Station Observations
PICKERING
North Yorkshire, PickeringGB

North YorkshirePickeringGB

Lat: 54.2494, Lon: -0.7725

Elevation: 192

Station Type: Oregon Scientific WMR100

http://www.yorkshirewalker.co.uk/weather/

High Low Average
Temperature 85.8°F29.9°F 55.0°F12.8°F 65.8°F18.8°F
Dew Point 55.4°F13.0°F 42.8°F6.0°F 49.1°F9.5°F
Winds 8.9 mph -14.3 mph - Calm Calm 1.9 mph 3.1 mph
Wind Gusts 12.3 mph19.8 mph -- 3.6 mph5.8 mph
Humidity 68% 36% 55%
Pressure 29.83 in1010.20 in 29.71 in1006.10 in -
Precipitation 0.00 in0.00 in - -
Hour Temp Dew Point Humidity Winds Wind Gusts Pressure Precip Precip Rate Daily Precip Total
12:00 AM 59.4°F15.2°C 44.6°F7.0°C 58% Calm Calm -- 29.83 in1010.2 mb 0.00 in0.0 mm 0.00 in0.0 mm 0.00 in0.0 mm
12:05 AM 59.4°F15.2°C 44.6°F7.0°C 58% Calm Calm -- 29.83 in1010.2 mb 0.00 in0.0 mm 0.00 in0.0 mm 0.00 in0.0 mm
12:10 AM 59.4°F15.2°C 44.6°F7.0°C 58% 0.1 mph N0.2 kmh N 0.9 mph1.4 kmh 29.83 in1010.2 mb 0.00 in0.0 mm 0.00 in0.0 mm 0.00 in0.0 mm
12:15 AM 59.4°F15.2°C 46.4°F8.0°C 59% 0.1 mph N0.2 kmh N 0.9 mph1.4 kmh 29.83 in1010.2 mb 0.00 in0.0 mm 0.00 in0.0 mm 0.00 in0.0 mm
12:20 AM 59.4°F15.2°C 46.4°F8.0°C 59% 0.1 mph NNW0.2 kmh NNW 1.1 mph1.8 kmh 29.83 in1010.2 mb 0.00 in0.0 mm 0.00 in0.0 mm 0.00 in0.0 mm
12:25 AM 59.0°F15.0°C 44.6°F7.0°C 59% 0.2 mph NNW0.3 kmh NNW 1.1 mph1.8 kmh 29.83 in1010.2 mb 0.00 in0.0 mm 0.00 in0.0 mm 0.00 in0.0 mm
12:30 AM 59.2°F15.1°C 46.4°F8.0°C 60% 0.1 mph NNW0.2 kmh NNW 0.9 mph1.4 kmh 29.83 in1010.2 mb 0.00 in0.0 mm 0.00 in0.0 mm 0.00 in0.0 mm
12:35 AM 59.2°F15.1°C 46.4°F8.0°C 60% 0.4 mph N0.6 kmh N 1.3 mph2.1 kmh 29.83 in1010.2 mb 0.00 in0.0 mm 0.00 in0.0 mm 0.00 in0.0 mm
12:40 AM 59.2°F15.1°C 46.4°F8.0°C 60% 0.3 mph N0.5 kmh N 1.3 mph2.1 kmh 29.83 in1010.2 mb 0.00 in0.0 mm 0.00 in0.0 mm 0.00 in0.0 mm
12:45 AM 59.2°F15.1°C 44.6°F7.0°C 59% Calm Calm -- 29.83 in1010.2 mb 0.00 in0.0 mm 0.00 in0.0 mm 0.00 in0.0 mm
12:50 AM 59.2°F15.1°C 46.4°F8.0°C 60% Calm Calm -- 29.80 in1009.1 mb 0.00 in0.0 mm 0.00 in0.0 mm 0.00 in0.0 mm
12:55 AM 59.2°F15.1°C 46.4°F8.0°C 60% Calm Calm -- 29.80 in1009.1 mb 0.00 in0.0 mm 0.00 in0.0 mm 0.00 in0.0 mm
01:00 AM 59.4°F15.2°C 46.4°F8.0°C 59% Calm Calm -- 29.80 in1009.1 mb 0.00 in0.0 mm 0.00 in0.0 mm 0.00 in0.0 mm
01:05 AM 59.0°F15.0°C 44.6°F7.0°C 59% Calm Calm -- 29.80 in1009.1 mb 0.00 in0.0 mm 0.00 in0.0 mm 0.00 in0.0 mm
01:10 AM 58.8°F14.9°C 44.6°F7.0°C 59% Calm Calm -- 29.80 in1009.1 mb 0.00 in0.0 mm 0.00 in0.0 mm 0.00 in0.0 mm
01:15 AM 58.6°F14.8°C 44.6°F7.0°C 59% Calm Calm -- 29.80 in1009.1 mb 0.00 in0.0 mm 0.00 in0.0 mm 0.00 in0.0 mm
01:20 AM 58.5°F14.7°C 44.6°F7.0°C 60% 0.1 mph W0.2 kmh W 0.9 mph1.4 kmh 29.80 in1009.1 mb 0.00 in0.0 mm 0.00 in0.0 mm 0.00 in0.0 mm
01:25 AM 58.5°F14.7°C 44.6°F7.0°C 60% 0.2 mph W0.3 kmh W 0.9 mph1.4 kmh 29.80 in1009.1 mb 0.00 in0.0 mm 0.00 in0.0 mm 0.00 in0.0 mm
01:30 AM 58.6°F14.8°C 44.6°F7.0°C 60% 0.3 mph W0.5 kmh W 0.9 mph1.4 kmh 29.80 in1009.1 mb 0.00 in0.0 mm 0.00 in0.0 mm 0.00 in0.0 mm
01:35 AM 58.6°F14.8°C 44.6°F7.0°C 60% 0.3 mph WSW0.5 kmh WSW 1.1 mph1.8 kmh 29.80 in1009.1 mb 0.00 in0.0 mm 0.00 in0.0 mm 0.00 in0.0 mm
01:40 AM 58.8°F14.9°C 46.4°F8.0°C 60% 0.4 mph W0.6 kmh W 1.1 mph1.8 kmh 29.80 in1009.1 mb 0.00 in0.0 mm 0.00 in0.0 mm 0.00 in0.0 mm
01:45 AM 58.8°F14.9°C 46.4°F8.0°C 60% 0.3 mph WNW0.5 kmh WNW 1.1 mph1.8 kmh 29.80 in1009.1 mb 0.00 in0.0 mm 0.00 in0.0 mm 0.00 in0.0 mm
01:50 AM 58.6°F14.8°C 44.6°F7.0°C 59% 0.7 mph WSW1.1 kmh WSW 2.5 mph4.0 kmh 29.80 in1009.1 mb 0.00 in0.0 mm 0.00 in0.0 mm 0.00 in0.0 mm
01:55 AM 58.5°F14.7°C 44.6°F7.0°C 60% 0.7 mph WSW1.1 kmh WSW 2.5 mph4.0 kmh 29.80 in1009.1 mb 0.00 in0.0 mm 0.00 in0.0 mm 0.00 in0.0 mm
02:00 AM 58.3°F14.6°C 44.6°F7.0°C 60% 0.2 mph WSW0.3 kmh WSW 1.3 mph2.1 kmh 29.80 in1009.1 mb 0.00 in0.0 mm 0.00 in0.0 mm 0.00 in0.0 mm
02:05 AM 58.1°F14.5°C 44.6°F7.0°C 59% 0.1 mph WSW0.2 kmh WSW 1.1 mph1.8 kmh 29.80 in1009.1 mb 0.00 in0.0 mm 0.00 in0.0 mm 0.00 in0.0 mm
02:10 AM 57.9°F14.4°C 44.6°F7.0°C 60% 0.1 mph WSW0.2 kmh WSW 1.1 mph1.8 kmh 29.80 in1009.1 mb 0.00 in0.0 mm 0.00 in0.0 mm 0.00 in0.0 mm
02:15 AM 57.7°F14.3°C 44.6°F7.0°C 60% Calm Calm -- 29.80 in1009.1 mb 0.00 in0.0 mm 0.00 in0.0 mm 0.00 in0.0 mm
02:20 AM 57.7°F14.3°C 44.6°F7.0°C 61% Calm Calm -- 29.80 in1009.1 mb 0.00 in0.0 mm 0.00 in0.0 mm 0.00 in0.0 mm
02:25 AM 57.7°F14.3°C 44.6°F7.0°C 61% 0.2 mph SW0.3 kmh SW 1.3 mph2.1 kmh 29.80 in1009.1 mb 0.00 in0.0 mm 0.00 in0.0 mm 0.00 in0.0 mm
02:30 AM 57.6°F14.2°C 44.6°F7.0°C 60% 0.5 mph WSW0.8 kmh WSW 1.3 mph2.1 kmh 29.80 in1009.1 mb 0.00 in0.0 mm 0.00 in0.0 mm 0.00 in0.0 mm
02:35 AM 57.4°F14.1°C 44.6°F7.0°C 61% 0.3 mph WSW0.5 kmh WSW 1.1 mph1.8 kmh 29.80 in1009.1 mb 0.00 in0.0 mm 0.00 in0.0 mm 0.00 in0.0 mm
02:40 AM 57.2°F14.0°C 44.6°F7.0°C 61% Calm Calm -- 29.80 in1009.1 mb 0.00 in0.0 mm 0.00 in0.0 mm 0.00 in0.0 mm
02:45 AM 56.8°F13.8°C 42.8°F6.0°C 61% Calm Calm -- 29.80 in1009.1 mb 0.00 in0.0 mm 0.00 in0.0 mm 0.00 in0.0 mm
02:50 AM 56.8°F13.8°C 42.8°F6.0°C 61% Calm Calm -- 29.80 in1009.1 mb 0.00 in0.0 mm 0.00 in0.0 mm 0.00 in0.0 mm
02:55 AM 56.8°F13.8°C 44.6°F7.0°C 62% Calm Calm -- 29.80 in1009.1 mb 0.00 in0.0 mm 0.00 in0.0 mm 0.00 in0.0 mm
03:00 AM 56.7°F13.7°C 44.6°F7.0°C 62% Calm Calm -- 29.80 in1009.1 mb 0.00 in0.0 mm 0.00 in0.0 mm 0.00 in0.0 mm
03:05 AM 56.7°F13.7°C 44.6°F7.0°C 62% Calm Calm -- 29.80 in1009.1 mb 0.00 in0.0 mm 0.00 in0.0 mm 0.00 in0.0 mm
03:10 AM 56.3°F13.5°C 44.6°F7.0°C 62% Calm Calm -- 29.80 in1009.1 mb 0.00 in0.0 mm 0.00 in0.0 mm 0.00 in0.0 mm
03:15 AM 56.3°F13.5°C 44.6°F7.0°C 62% Calm Calm -- 29.80 in1009.1 mb 0.00 in0.0 mm 0.00 in0.0 mm 0.00 in0.0 mm
03:20 AM 55.9°F13.3°C 44.6°F7.0°C 63% Calm Calm -- 29.80 in1009.1 mb 0.00 in0.0 mm 0.00 in0.0 mm 0.00 in0.0 mm
03:25 AM 55.8°F13.2°C 44.6°F7.0°C 63% Calm Calm -- 29.80 in1009.1 mb 0.00 in0.0 mm 0.00 in0.0 mm 0.00 in0.0 mm
03:30 AM 55.6°F13.1°C 42.8°F6.0°C 63% Calm Calm -- 29.80 in1009.1 mb 0.00 in0.0 mm 0.00 in0.0 mm 0.00 in0.0 mm
03:35 AM 55.8°F13.2°C 44.6°F7.0°C 63% Calm Calm -- 29.80 in1009.1 mb 0.00 in0.0 mm 0.00 in0.0 mm 0.00 in0.0 mm
03:40 AM 55.6°F13.1°C 42.8°F6.0°C 63% Calm Calm -- 29.80 in1009.1 mb 0.00 in0.0 mm 0.00 in0.0 mm 0.00 in0.0 mm
03:45 AM 55.4°F13.0°C 44.6°F7.0°C 64% Calm Calm -- 29.80 in1009.1 mb 0.00 in0.0 mm 0.00 in0.0 mm 0.00 in0.0 mm
03:50 AM 55.4°F13.0°C 44.6°F7.0°C 64% Calm Calm -- 29.80 in1009.1 mb 0.00 in0.0 mm 0.00 in0.0 mm 0.00 in0.0 mm
03:55 AM 55.4°F13.0°C 44.6°F7.0°C 64% Calm Calm -- 29.80 in1009.1 mb 0.00 in0.0 mm 0.00 in0.0 mm 0.00 in0.0 mm
04:00 AM 55.4°F13.0°C 44.6°F7.0°C 64% Calm Calm -- 29.80 in1009.1 mb 0.00 in0.0 mm 0.00 in0.0 mm 0.00 in0.0 mm
04:05 AM 55.4°F13.0°C 44.6°F7.0°C 64% 0.2 mph NNW0.3 kmh NNW 0.9 mph1.4 kmh 29.80 in1009.1 mb 0.00 in0.0 mm 0.00 in0.0 mm 0.00 in0.0 mm
04:10 AM 55.4°F13.0°C 44.6°F7.0°C 64% 0.2 mph NNW0.3 kmh NNW 0.9 mph1.4 kmh 29.80 in1009.1 mb 0.00 in0.0 mm 0.00 in0.0 mm 0.00 in0.0 mm
04:15 AM 55.4°F13.0°C 44.6°F7.0°C 64% 0.1 mph N0.2 kmh N 0.9 mph1.4 kmh 29.80 in1009.1 mb 0.00 in0.0 mm 0.00 in0.0 mm 0.00 in0.0 mm
04:20 AM 55.2°F12.9°C 44.6°F7.0°C 64% 0.3 mph NE0.5 kmh NE 2.2 mph3.5 kmh 29.80 in1009.1 mb 0.00 in0.0 mm 0.00 in0.0 mm 0.00 in0.0 mm
04:25 AM 55.2°F12.9°C 44.6°F7.0°C 65% 0.7 mph NE1.1 kmh NE 2.2 mph3.5 kmh 29.80 in1009.1 mb 0.00 in0.0 mm 0.00 in0.0 mm 0.00 in0.0 mm
04:30 AM 55.0°F12.8°C 44.6°F7.0°C 65% 0.7 mph NE1.1 kmh NE 2.2 mph3.5 kmh 29.80 in1009.1 mb 0.00 in0.0 mm 0.00 in0.0 mm 0.00 in0.0 mm
04:35 AM 55.0°F12.8°C 44.6°F7.0°C 66% 0.6 mph ENE1.0 kmh ENE 1.6 mph2.6 kmh 29.80 in1009.1 mb 0.00 in0.0 mm 0.00 in0.0 mm 0.00 in0.0 mm
04:40 AM 55.2°F12.9°C 44.6°F7.0°C 65% 1.0 mph NE1.6 kmh NE 2.0 mph3.2 kmh 29.80 in1009.1 mb 0.00 in0.0 mm 0.00 in0.0 mm 0.00 in0.0 mm
04:45 AM 55.4°F13.0°C 44.6°F7.0°C 65% 0.9 mph NE1.4 kmh NE 2.0 mph3.2 kmh 29.80 in1009.1 mb 0.00 in0.0 mm 0.00 in0.0 mm 0.00 in0.0 mm
04:50 AM 55.4°F13.0°C 44.6°F7.0°C 66% 0.7 mph NE1.1 kmh NE 1.6 mph2.6 kmh 29.77 in1008.1 mb 0.00 in0.0 mm 0.00 in0.0 mm 0.00 in0.0 mm
04:55 AM 55.0°F12.8°C 44.6°F7.0°C 65% 0.9 mph NE1.4 kmh NE 2.0 mph3.2 kmh 29.77 in1008.1 mb 0.00 in0.0 mm 0.00 in0.0 mm 0.00 in0.0 mm
05:00 AM 55.2°F12.9°C 44.6°F7.0°C 66% 0.8 mph NE1.3 kmh NE 2.0 mph3.2 kmh 29.77 in1008.1 mb 0.00 in0.0 mm 0.00 in0.0 mm 0.00 in0.0 mm
05:05 AM 55.2°F12.9°C 44.6°F7.0°C 65% 0.2 mph NE0.3 kmh NE 1.1 mph1.8 kmh 29.77 in1008.1 mb 0.00 in0.0 mm 0.00 in0.0 mm 0.00 in0.0 mm
05:10 AM 55.2°F12.9°C 44.6°F7.0°C 66% Calm Calm -- 29.77 in1008.1 mb 0.00 in0.0 mm 0.00 in0.0 mm 0.00 in0.0 mm
05:15 AM 55.2°F12.9°C 44.6°F7.0°C 66% 0.1 mph NNW0.2 kmh NNW 0.9 mph1.4 kmh 29.77 in1008.1 mb 0.00 in0.0 mm 0.00 in0.0 mm 0.00 in0.0 mm
05:20 AM 55.2°F12.9°C 44.6°F7.0°C 66% 0.2 mph NE0.3 kmh NE 0.9 mph1.4 kmh 29.77 in1008.1 mb 0.00 in0.0 mm 0.00 in0.0 mm 0.00 in0.0 mm
05:25 AM 55.2°F12.9°C 44.6°F7.0°C 66% 0.1 mph ENE0.2 kmh ENE 0.9 mph1.4 kmh 29.77 in1008.1 mb 0.00 in0.0 mm 0.00 in0.0 mm 0.00 in0.0 mm
05:30 AM 55.4°F13.0°C 44.6°F7.0°C 66% 0.2 mph NNE0.3 kmh NNE 1.3 mph2.1 kmh 29.77 in1008.1 mb 0.00 in0.0 mm 0.00 in0.0 mm 0.00 in0.0 mm
05:35 AM 55.4°F13.0°C 44.6°F7.0°C 66% 0.2 mph NNE0.3 kmh NNE 1.3 mph2.1 kmh 29.77 in1008.1 mb 0.00 in0.0 mm 0.00 in0.0 mm 0.00 in0.0 mm
05:40 AM 55.6°F13.1°C 44.6°F7.0°C 67% 0.2 mph N0.3 kmh N 1.3 mph2.1 kmh 29.77 in1008.1 mb 0.00 in0.0 mm 0.00 in0.0 mm 0.00 in0.0 mm
05:45 AM 55.6°F13.1°C 44.6°F7.0°C 66% 0.4 mph NNE0.6 kmh NNE 1.3 mph2.1 kmh 29.77 in1008.1 mb 0.00 in0.0 mm 0.00 in0.0 mm 0.00 in0.0 mm
05:50 AM 55.6°F13.1°C 44.6°F7.0°C 66% 0.5 mph ENE0.8 kmh ENE 2.0 mph3.2 kmh 29.77 in1008.1 mb 0.00 in0.0 mm 0.00 in0.0 mm 0.00 in0.0 mm
05:55 AM 55.6°F13.1°C 44.6°F7.0°C 66% 0.8 mph E1.3 kmh E 2.0 mph3.2 kmh 29.77 in1008.1 mb 0.00 in0.0 mm 0.00 in0.0 mm 0.00 in0.0 mm
06:00 AM 56.1°F13.4°C 44.6°F7.0°C 66% 0.9 mph ENE1.4 kmh ENE 2.0 mph3.2 kmh 29.77 in1008.1 mb 0.00 in0.0 mm 0.00 in0.0 mm 0.00 in0.0 mm
06:05 AM 56.3°F13.5°C 46.4°F8.0°C 65% 0.6 mph NE1.0 kmh NE 2.0 mph3.2 kmh 29.77 in1008.1 mb 0.00 in0.0 mm 0.00 in0.0 mm 0.00 in0.0 mm
06:10 AM 56.1°F13.4°C 44.6°F7.0°C 65% 0.3 mph NE0.5 kmh NE 2.0 mph3.2 kmh 29.77 in1008.1 mb 0.00 in0.0 mm 0.00 in0.0 mm 0.00 in0.0 mm
06:15 AM 56.3°F13.5°C 44.6°F7.0°C 64% Calm Calm -- 29.77 in1008.1 mb 0.00 in0.0 mm 0.00 in0.0 mm 0.00 in0.0 mm
06:20 AM 56.5°F13.6°C 44.6°F7.0°C 64% Calm Calm -- 29.77 in1008.1 mb 0.00 in0.0 mm 0.00 in0.0 mm 0.00 in0.0 mm
06:25 AM 56.7°F13.7°C 44.6°F7.0°C 63% 0.1 mph SSE0.2 kmh SSE 0.9 mph1.4 kmh 29.77 in1008.1 mb 0.00 in0.0 mm 0.00 in0.0 mm 0.00 in0.0 mm
06:30 AM 57.0°F13.9°C 44.6°F7.0°C 63% 0.5 mph SW0.8 kmh SW 1.6 mph2.6 kmh 29.77 in1008.1 mb 0.00 in0.0 mm 0.00 in0.0 mm 0.00 in0.0 mm
06:35 AM 57.2°F14.0°C 44.6°F7.0°C 63% 1.0 mph SW1.6 kmh SW 1.6 mph2.6 kmh 29.77 in1008.1 mb 0.00 in0.0 mm 0.00 in0.0 mm 0.00 in0.0 mm
06:40 AM 57.2°F14.0°C 44.6°F7.0°C 63% 0.6 mph SW1.0 kmh SW 1.3 mph2.1 kmh 29.77 in1008.1 mb 0.00 in0.0 mm 0.00 in0.0 mm 0.00 in0.0 mm
06:45 AM 57.4°F14.1°C 44.6°F7.0°C 62% 0.3 mph WSW0.5 kmh WSW 1.3 mph2.1 kmh 29.77 in1008.1 mb 0.00 in0.0 mm 0.00 in0.0 mm 0.00 in0.0 mm
06:50 AM 57.7°F14.3°C 44.6°F7.0°C 62% 0.6 mph WSW1.0 kmh WSW 1.3 mph2.1 kmh 29.77 in1008.1 mb 0.00 in0.0 mm 0.00 in0.0 mm 0.00 in0.0 mm
06:55 AM 58.1°F14.5°C 46.4°F8.0°C 62% 0.9 mph W1.4 kmh W 1.6 mph2.6 kmh 29.77 in1008.1 mb 0.00 in0.0 mm 0.00 in0.0 mm 0.00 in0.0 mm
07:00 AM 58.3°F14.6°C 46.4°F8.0°C 62% 0.5 mph W0.8 kmh W 1.6 mph2.6 kmh 29.77 in1008.1 mb 0.00 in0.0 mm 0.00 in0.0 mm 0.00 in0.0 mm
07:05 AM 58.6°F14.8°C 46.4°F8.0°C 62% 0.4 mph S0.6 kmh S 2.2 mph3.5 kmh 29.77 in1008.1 mb 0.00 in0.0 mm 0.00 in0.0 mm 0.00 in0.0 mm
07:10 AM 59.0°F15.0°C 46.4°F8.0°C 62% 0.8 mph SW1.3 kmh SW 2.9 mph4.7 kmh 29.77 in1008.1 mb 0.00 in0.0 mm 0.00 in0.0 mm 0.00 in0.0 mm
07:15 AM 59.4°F15.2°C 46.4°F8.0°C 62% 0.7 mph SW1.1 kmh SW 2.9 mph4.7 kmh 29.77 in1008.1 mb 0.00 in0.0 mm 0.00 in0.0 mm 0.00 in0.0 mm
07:20 AM 59.7°F15.4°C 46.4°F8.0°C 61% 0.9 mph S1.4 kmh S 2.0 mph3.2 kmh 29.77 in1008.1 mb 0.00 in0.0 mm 0.00 in0.0 mm 0.00 in0.0 mm
07:25 AM 60.1°F15.6°C 46.4°F8.0°C 61% 1.1 mph SW1.8 kmh SW 2.9 mph4.7 kmh 29.77 in1008.1 mb 0.00 in0.0 mm 0.00 in0.0 mm 0.00 in0.0 mm
07:30 AM 60.4°F15.8°C 46.4°F8.0°C 61% 1.3 mph SW2.1 kmh SW 2.9 mph4.7 kmh 29.77 in1008.1 mb 0.00 in0.0 mm 0.00 in0.0 mm 0.00 in0.0 mm
07:35 AM 60.8°F16.0°C 48.2°F9.0°C 60% 1.1 mph S1.8 kmh S 2.5 mph4.0 kmh 29.77 in1008.1 mb 0.00 in0.0 mm 0.00 in0.0 mm 0.00 in0.0 mm
07:40 AM 61.0°F16.1°C 48.2°F9.0°C 61% 1.1 mph S1.8 kmh S 2.5 mph4.0 kmh 29.77 in1008.1 mb 0.00 in0.0 mm 0.00 in0.0 mm 0.00 in0.0 mm
07:45 AM 61.5°F16.4°C 48.2°F9.0°C 60% 1.0 mph WSW1.6 kmh WSW 2.7 mph4.3 kmh 29.77 in1008.1 mb 0.00 in0.0 mm 0.00 in0.0 mm 0.00 in0.0 mm
07:50 AM 61.9°F16.6°C 48.2°F9.0°C 60% 1.1 mph W1.8 kmh W 2.7 mph4.3 kmh 29.77 in1008.1 mb 0.00 in0.0 mm 0.00 in0.0 mm 0.00 in0.0 mm
07:55 AM 62.6°F17.0°C 48.2°F9.0°C 59% 0.7 mph WNW1.1 kmh WNW 2.5 mph4.0 kmh 29.77 in1008.1 mb 0.00 in0.0 mm 0.00 in0.0 mm 0.00 in0.0 mm
08:00 AM 63.1°F17.3°C 48.2°F9.0°C 59% 0.8 mph W1.3 kmh W 2.0 mph3.2 kmh 29.77 in1008.1 mb 0.00 in0.0 mm 0.00 in0.0 mm 0.00 in0.0 mm
08:05 AM 63.7°F17.6°C 50.0°F10.0°C 59% 0.9 mph W1.4 kmh W 2.0 mph3.2 kmh 29.77 in1008.1 mb 0.00 in0.0 mm 0.00 in0.0 mm 0.00 in0.0 mm
08:10 AM 64.0°F17.8°C 50.0°F10.0°C 59% 0.8 mph S1.3 kmh S 2.2 mph3.5 kmh 29.77 in1008.1 mb 0.00 in0.0 mm 0.00 in0.0 mm 0.00 in0.0 mm
08:15 AM 64.6°F18.1°C 50.0°F10.0°C 58% 1.0 mph SE1.6 kmh SE 2.2 mph3.5 kmh 29.77 in1008.1 mb 0.00 in0.0 mm 0.00 in0.0 mm 0.00 in0.0 mm
08:20 AM 65.5°F18.6°C 50.0°F10.0°C 58% 1.5 mph SSW2.4 kmh SSW 3.4 mph5.5 kmh 29.77 in1008.1 mb 0.00 in0.0 mm 0.00 in0.0 mm 0.00 in0.0 mm
08:25 AM 65.8°F18.8°C 50.0°F10.0°C 58% 1.7 mph SW2.7 kmh SW 3.4 mph5.5 kmh 29.77 in1008.1 mb 0.00 in0.0 mm 0.00 in0.0 mm 0.00 in0.0 mm
08:30 AM 66.9°F19.4°C 50.0°F10.0°C 56% 1.7 mph SW2.7 kmh SW 3.1 mph5.0 kmh 29.77 in1008.1 mb 0.00 in0.0 mm 0.00 in0.0 mm 0.00 in0.0 mm
08:35 AM 67.6°F19.8°C 51.8°F11.0°C 56% 2.1 mph SW3.4 kmh SW 2.7 mph4.3 kmh 29.77 in1008.1 mb 0.00 in0.0 mm 0.00 in0.0 mm 0.00 in0.0 mm
08:40 AM 67.8°F19.9°C 51.8°F11.0°C 55% 2.3 mph SW3.7 kmh SW 2.7 mph4.3 kmh 29.77 in1008.1 mb 0.00 in0.0 mm 0.00 in0.0 mm 0.00 in0.0 mm
08:45 AM 68.7°F20.4°C 51.8°F11.0°C 55% 1.9 mph SW3.1 kmh SW 3.8 mph6.1 kmh 29.77 in1008.1 mb 0.00 in0.0 mm 0.00 in0.0 mm 0.00 in0.0 mm
08:50 AM 69.8°F21.0°C 53.6°F12.0°C 54% 1.3 mph SW2.1 kmh SW 3.8 mph6.1 kmh 29.77 in1008.1 mb 0.00 in0.0 mm 0.00 in0.0 mm 0.00 in0.0 mm
08:55 AM 70.0°F21.1°C 51.8°F11.0°C 53% 2.2 mph SSW3.5 kmh SSW 4.0 mph6.4 kmh 29.77 in1008.1 mb 0.00 in0.0 mm 0.00 in0.0 mm 0.00 in0.0 mm
09:00 AM 70.5°F21.4°C 51.8°F11.0°C 52% 3.2 mph SW5.1 kmh SW 5.8 mph9.3 kmh 29.77 in1008.1 mb 0.00 in0.0 mm 0.00 in0.0 mm 0.00 in0.0 mm
09:05 AM 70.9°F21.6°C 53.6°F12.0°C 52% 2.7 mph WSW4.3 kmh WSW 5.8 mph9.3 kmh 29.74 in1007.1 mb 0.00 in0.0 mm 0.00 in0.0 mm 0.00 in0.0 mm
09:10 AM 71.1°F21.7°C 53.6°F12.0°C 52% 2.8 mph SW4.5 kmh SW 4.9 mph7.9 kmh 29.74 in1007.1 mb 0.00 in0.0 mm 0.00 in0.0 mm 0.00 in0.0 mm
09:15 AM 71.8°F22.1°C 53.6°F12.0°C 52% 3.1 mph SW5.0 kmh SW 4.9 mph7.9 kmh 29.74 in1007.1 mb 0.00 in0.0 mm 0.00 in0.0 mm 0.00 in0.0 mm
09:20 AM 72.1°F22.3°C 53.6°F12.0°C 51% 2.8 mph SW4.5 kmh SW 4.0 mph6.4 kmh 29.74 in1007.1 mb 0.00 in0.0 mm 0.00 in0.0 mm 0.00 in0.0 mm
09:25 AM 72.9°F22.7°C 53.6°F12.0°C 51% 2.6 mph SSW4.2 kmh SSW 4.0 mph6.4 kmh 29.74 in1007.1 mb 0.00 in0.0 mm 0.00 in0.0 mm 0.00 in0.0 mm
09:30 AM 73.6°F23.1°C 53.6°F12.0°C 49% 2.0 mph SW3.2 kmh SW 2.7 mph4.3 kmh 29.74 in1007.1 mb 0.00 in0.0 mm 0.00 in0.0 mm 0.00 in0.0 mm
09:35 AM 74.5°F23.6°C 55.4°F13.0°C 49% 2.9 mph WSW4.7 kmh WSW 5.4 mph8.7 kmh 29.74 in1007.1 mb 0.00 in0.0 mm 0.00 in0.0 mm 0.00 in0.0 mm
09:40 AM 74.1°F23.4°C 53.6°F12.0°C 48% 4.4 mph WSW7.1 kmh WSW 6.5 mph10.5 kmh 29.74 in1007.1 mb 0.00 in0.0 mm 0.00 in0.0 mm 0.00 in0.0 mm
09:45 AM 74.1°F23.4°C 53.6°F12.0°C 48% 4.3 mph WSW6.9 kmh WSW 8.5 mph13.7 kmh 29.74 in1007.1 mb 0.00 in0.0 mm 0.00 in0.0 mm 0.00 in0.0 mm
09:50 AM 75.4°F24.1°C 55.4°F13.0°C 48% 3.1 mph SW5.0 kmh SW 8.5 mph13.7 kmh 29.74 in1007.1 mb 0.00 in0.0 mm 0.00 in0.0 mm 0.00 in0.0 mm
09:55 AM 75.7°F24.3°C 55.4°F13.0°C 47% 3.7 mph SW6.0 kmh SW 6.5 mph10.5 kmh 29.74 in1007.1 mb 0.00 in0.0 mm 0.00 in0.0 mm 0.00 in0.0 mm
10:00 AM 76.6°F24.8°C 55.4°F13.0°C 47% 3.9 mph WSW6.3 kmh WSW 6.5 mph10.5 kmh 29.74 in1007.1 mb 0.00 in0.0 mm 0.00 in0.0 mm 0.00 in0.0 mm
10:05 AM 76.6°F24.8°C 55.4°F13.0°C 47% 3.6 mph W5.8 kmh W 9.8 mph15.8 kmh 29.74 in1007.1 mb 0.00 in0.0 mm 0.00 in0.0 mm 0.00 in0.0 mm
10:10 AM 77.4°F25.2°C 55.4°F13.0°C 46% 4.8 mph WSW7.7 kmh WSW 10.1 mph16.3 kmh 29.74 in1007.1 mb 0.00 in0.0 mm 0.00 in0.0 mm 0.00 in0.0 mm
10:15 AM 77.9°F25.5°C 55.4°F13.0°C 45% 3.8 mph SW6.1 kmh SW 10.1 mph16.3 kmh 29.74 in1007.1 mb 0.00 in0.0 mm 0.00 in0.0 mm 0.00 in0.0 mm
10:20 AM 77.9°F25.5°C 55.4°F13.0°C 44% 3.6 mph SW5.8 kmh SW 7.8 mph12.6 kmh 29.74 in1007.1 mb 0.00 in0.0 mm 0.00 in0.0 mm 0.00 in0.0 mm
10:25 AM 78.4°F25.8°C 53.6°F12.0°C 43% 3.9 mph WSW6.3 kmh WSW 6.0 mph9.7 kmh 29.74 in1007.1 mb 0.00 in0.0 mm 0.00 in0.0 mm 0.00 in0.0 mm
10:30 AM 79.2°F26.2°C 55.4°F13.0°C 43% 3.8 mph WSW6.1 kmh WSW 6.0 mph9.7 kmh 29.74 in1007.1 mb 0.00 in0.0 mm 0.00 in0.0 mm 0.00 in0.0 mm
10:35 AM 79.2°F26.2°C 55.4°F13.0°C 43% 5.1 mph WSW8.2 kmh WSW 9.8 mph15.8 kmh 29.74 in1007.1 mb 0.00 in0.0 mm 0.00 in0.0 mm 0.00 in0.0 mm
10:40 AM 79.9°F26.6°C 55.4°F13.0°C 42% 4.7 mph WSW7.6 kmh WSW 9.8 mph15.8 kmh 29.74 in1007.1 mb 0.00 in0.0 mm 0.00 in0.0 mm 0.00 in0.0 mm
10:45 AM 80.2°F26.8°C 55.4°F13.0°C 42% 3.7 mph WSW6.0 kmh WSW 5.6 mph9.0 kmh 29.74 in1007.1 mb 0.00 in0.0 mm 0.00 in0.0 mm 0.00 in0.0 mm
10:50 AM 80.6°F27.0°C 55.4°F13.0°C 41% 4.0 mph WSW6.4 kmh WSW 5.8 mph9.3 kmh 29.74 in1007.1 mb 0.00 in0.0 mm 0.00 in0.0 mm 0.00 in0.0 mm
10:55 AM 79.9°F26.6°C 55.4°F13.0°C 41% 4.7 mph WSW7.6 kmh WSW 8.1 mph13.0 kmh 29.74 in1007.1 mb 0.00 in0.0 mm 0.00 in0.0 mm 0.00 in0.0 mm
11:00 AM 78.3°F25.7°C 53.6°F12.0°C 41% 5.2 mph W8.4 kmh W 8.1 mph13.0 kmh 29.74 in1007.1 mb 0.00 in0.0 mm 0.00 in0.0 mm 0.00 in0.0 mm
11:05 AM 79.5°F26.4°C 53.6°F12.0°C 41% 4.8 mph W7.7 kmh W 6.3 mph10.1 kmh 29.74 in1007.1 mb 0.00 in0.0 mm 0.00 in0.0 mm 0.00 in0.0 mm
11:10 AM 80.1°F26.7°C 55.4°F13.0°C 41% 4.6 mph SW7.4 kmh SW 8.5 mph13.7 kmh 29.74 in1007.1 mb 0.00 in0.0 mm 0.00 in0.0 mm 0.00 in0.0 mm
11:15 AM 81.0°F27.2°C 55.4°F13.0°C 40% 5.0 mph SW8.0 kmh SW 8.5 mph13.7 kmh 29.74 in1007.1 mb 0.00 in0.0 mm 0.00 in0.0 mm 0.00 in0.0 mm
11:20 AM 80.6°F27.0°C 53.6°F12.0°C 39% 6.4 mph SW10.3 kmh SW 12.3 mph19.8 kmh 29.74 in1007.1 mb 0.00 in0.0 mm 0.00 in0.0 mm 0.00 in0.0 mm
11:25 AM 79.9°F26.6°C 53.6°F12.0°C 40% 6.3 mph WSW10.1 kmh WSW 12.3 mph19.8 kmh 29.74 in1007.1 mb 0.00 in0.0 mm 0.00 in0.0 mm 0.00 in0.0 mm
11:30 AM 79.0°F26.1°C 53.6°F12.0°C 40% 4.8 mph SW7.7 kmh SW 8.5 mph13.7 kmh 29.74 in1007.1 mb 0.00 in0.0 mm 0.00 in0.0 mm 0.00 in0.0 mm
11:35 AM 79.5°F26.4°C 53.6°F12.0°C 40% 3.8 mph WSW6.1 kmh WSW 6.5 mph10.5 kmh 29.71 in1006.1 mb 0.00 in0.0 mm 0.00 in0.0 mm 0.00 in0.0 mm
11:40 AM 81.7°F27.6°C 55.4°F13.0°C 39% 3.3 mph SW5.3 kmh SW 6.5 mph10.5 kmh 29.71 in1006.1 mb 0.00 in0.0 mm 0.00 in0.0 mm 0.00 in0.0 mm
11:45 AM 83.1°F28.4°C 55.4°F13.0°C 38% 3.0 mph SW4.8 kmh SW 5.4 mph8.7 kmh 29.71 in1006.1 mb 0.00 in0.0 mm 0.00 in0.0 mm 0.00 in0.0 mm
11:50 AM 83.3°F28.5°C 55.4°F13.0°C 38% 4.2 mph WSW6.8 kmh WSW 6.5 mph10.5 kmh 29.71 in1006.1 mb 0.00 in0.0 mm 0.00 in0.0 mm 0.00 in0.0 mm
11:55 AM 84.4°F29.1°C 55.4°F13.0°C 37% 4.9 mph WSW7.9 kmh WSW 7.6 mph12.2 kmh 29.71 in1006.1 mb 0.00 in0.0 mm 0.00 in0.0 mm 0.00 in0.0 mm
12:00 PM 85.5°F29.7°C 55.4°F13.0°C 36% 4.5 mph WSW7.2 kmh WSW 7.6 mph12.2 kmh 29.71 in1006.1 mb 0.00 in0.0 mm 0.00 in0.0 mm 0.00 in0.0 mm
12:05 PM 85.8°F29.9°C 55.4°F13.0°C 37% 2.9 mph SW4.7 kmh SW 5.8 mph9.3 kmh 29.71 in1006.1 mb 0.00 in0.0 mm 0.00 in0.0 mm 0.00 in0.0 mm
12:10 PM 84.4°F29.1°C 55.4°F13.0°C 36% 3.2 mph WSW5.1 kmh WSW 7.6 mph12.2 kmh 29.71 in1006.1 mb 0.00 in0.0 mm 0.00 in0.0 mm 0.00 in0.0 mm
12:15 PM 83.5°F28.6°C 55.4°F13.0°C 37% 4.5 mph WSW7.2 kmh WSW 7.6 mph12.2 kmh 29.71 in1006.1 mb 0.00 in0.0 mm 0.00 in0.0 mm 0.00 in0.0 mm
12:20 PM 82.4°F28.0°C 53.6°F12.0°C 37% 3.7 mph SW6.0 kmh SW 5.8 mph9.3 kmh 29.71 in1006.1 mb 0.00 in0.0 mm 0.00 in0.0 mm 0.00 in0.0 mm
12:25 PM 82.2°F27.9°C 53.6°F12.0°C 37% 2.9 mph SW4.7 kmh SW 5.4 mph8.7 kmh 29.71 in1006.1 mb 0.00 in0.0 mm 0.00 in0.0 mm 0.00 in0.0 mm
12:30 PM 82.9°F28.3°C 55.4°F13.0°C 37% 3.5 mph SW5.6 kmh SW 8.1 mph13.0 kmh 29.71 in1006.1 mb 0.00 in0.0 mm 0.00 in0.0 mm 0.00 in0.0 mm
12:35 PM 83.3°F28.5°C 55.4°F13.0°C 37% 3.5 mph SW5.6 kmh SW 8.1 mph13.0 kmh 29.71 in1006.1 mb 0.00 in0.0 mm 0.00 in0.0 mm 0.00 in0.0 mm
12:40 PM 83.7°F28.7°C 55.4°F13.0°C 36% 4.5 mph WSW7.2 kmh WSW 8.1 mph13.0 kmh 29.71 in1006.1 mb 0.00 in0.0 mm 0.00 in0.0 mm 0.00 in0.0 mm
12:45 PM 82.0°F27.8°C 53.6°F12.0°C 36% 3.4 mph SW5.5 kmh SW 5.4 mph8.7 kmh 29.71 in1006.1 mb 0.00 in0.0 mm 0.00 in0.0 mm 0.00 in0.0 mm
12:50 PM 80.8°F27.1°C 51.8°F11.0°C 36% 3.2 mph S5.1 kmh S 6.0 mph9.7 kmh 29.71 in1006.1 mb 0.00 in0.0 mm 0.00 in0.0 mm 0.00 in0.0 mm
12:55 PM 80.1°F26.7°C 51.8°F11.0°C 37% 3.6 mph SSW5.8 kmh SSW 6.0 mph9.7 kmh 29.71 in1006.1 mb 0.00 in0.0 mm 0.00 in0.0 mm 0.00 in0.0 mm
01:00 PM 80.2°F26.8°C 51.8°F11.0°C 37% 3.6 mph SW5.8 kmh SW 4.9 mph7.9 kmh 29.71 in1006.1 mb 0.00 in0.0 mm 0.00 in0.0 mm 0.00 in0.0 mm
01:05 PM 81.3°F27.4°C 53.6°F12.0°C 37% 3.5 mph SW5.6 kmh SW 4.9 mph7.9 kmh 29.71 in1006.1 mb 0.00 in0.0 mm 0.00 in0.0 mm 0.00 in0.0 mm
01:10 PM 81.5°F27.5°C 53.6°F12.0°C 36% 3.4 mph SW5.5 kmh SW 5.6 mph9.0 kmh 29.71 in1006.1 mb 0.00 in0.0 mm 0.00 in0.0 mm 0.00 in0.0 mm
01:15 PM 80.8°F27.1°C 51.8°F11.0°C 37% 4.0 mph WSW6.4 kmh WSW 5.6 mph9.0 kmh 29.71 in1006.1 mb 0.00 in0.0 mm 0.00 in0.0 mm 0.00 in0.0 mm
01:20 PM 80.4°F26.9°C 51.8°F11.0°C 37% 4.8 mph W7.7 kmh W 7.4 mph11.9 kmh 29.71 in1006.1 mb 0.00 in0.0 mm 0.00 in0.0 mm 0.00 in0.0 mm
01:25 PM 79.5°F26.4°C 51.8°F11.0°C 37% 4.1 mph WSW6.6 kmh WSW 7.4 mph11.9 kmh 29.71 in1006.1 mb 0.00 in0.0 mm 0.00 in0.0 mm 0.00 in0.0 mm
01:30 PM 79.5°F26.4°C 51.8°F11.0°C 37% 3.3 mph WSW5.3 kmh WSW 6.3 mph10.1 kmh 29.71 in1006.1 mb 0.00 in0.0 mm 0.00 in0.0 mm 0.00 in0.0 mm
01:35 PM 79.5°F26.4°C 51.8°F11.0°C 37% 3.9 mph SW6.3 kmh SW 6.3 mph10.1 kmh 29.71 in1006.1 mb 0.00 in0.0 mm 0.00 in0.0 mm 0.00 in0.0 mm
01:40 PM 79.7°F26.5°C 51.8°F11.0°C 38% 2.6 mph SW4.2 kmh SW 7.4 mph11.9 kmh 29.71 in1006.1 mb 0.00 in0.0 mm 0.00 in0.0 mm 0.00 in0.0 mm
01:45 PM 79.9°F26.6°C 51.8°F11.0°C 38% 3.1 mph WSW5.0 kmh WSW 7.4 mph11.9 kmh 29.71 in1006.1 mb 0.00 in0.0 mm 0.00 in0.0 mm 0.00 in0.0 mm
01:50 PM 79.0°F26.1°C 51.8°F11.0°C 38% 6.6 mph SW10.6 kmh SW 12.1 mph19.5 kmh 29.71 in1006.1 mb 0.00 in0.0 mm 0.00 in0.0 mm 0.00 in0.0 mm
01:55 PM 77.5°F25.3°C 51.8°F11.0°C 39% 8.9 mph SW14.3 kmh SW 12.1 mph19.5 kmh 29.71 in1006.1 mb 0.00 in0.0 mm 0.00 in0.0 mm 0.00 in0.0 mm
02:00 PM 77.0°F25.0°C 50.0°F10.0°C 39% 7.6 mph WSW12.2 kmh WSW 11.9 mph19.2 kmh 29.71 in1006.1 mb 0.00 in0.0 mm 0.00 in0.0 mm 0.00 in0.0 mm
02:05 PM 76.3°F24.6°C 51.8°F11.0°C 41% 6.5 mph W10.5 kmh W 10.3 mph16.6 kmh 29.71 in1006.1 mb 0.00 in0.0 mm 0.00 in0.0 mm 0.00 in0.0 mm
02:10 PM 75.7°F24.3°C 50.0°F10.0°C 41% 6.5 mph WNW10.5 kmh WNW 8.7 mph14.0 kmh 29.71 in1006.1 mb 0.00 in0.0 mm 0.00 in0.0 mm 0.00 in0.0 mm
02:15 PM 75.9°F24.4°C 50.0°F10.0°C 41% 6.6 mph WNW10.6 kmh WNW 10.3 mph16.6 kmh 29.71 in1006.1 mb 0.00 in0.0 mm 0.00 in0.0 mm 0.00 in0.0 mm
02:20 PM 75.6°F24.2°C 51.8°F11.0°C 42% 5.9 mph W9.5 kmh W 10.3 mph16.6 kmh 29.71 in1006.1 mb 0.00 in0.0 mm 0.00 in0.0 mm 0.00 in0.0 mm
02:25 PM 74.7°F23.7°C 50.0°F10.0°C 42% 4.2 mph WNW6.8 kmh WNW 7.8 mph12.6 kmh 29.71 in1006.1 mb 0.00 in0.0 mm 0.00 in0.0 mm 0.00 in0.0 mm
02:30 PM 74.3°F23.5°C 50.0°F10.0°C 43% 4.9 mph WNW7.9 kmh WNW 7.4 mph11.9 kmh 29.71 in1006.1 mb 0.00 in0.0 mm 0.00 in0.0 mm 0.00 in0.0 mm
02:35 PM 73.8°F23.2°C 50.0°F10.0°C 43% 6.2 mph WNW10.0 kmh WNW 8.1 mph13.0 kmh 29.71 in1006.1 mb 0.00 in0.0 mm 0.00 in0.0 mm 0.00 in0.0 mm
02:40 PM 74.5°F23.6°C 50.0°F10.0°C 43% 5.7 mph WSW9.2 kmh WSW 8.7 mph14.0 kmh 29.71 in1006.1 mb 0.00 in0.0 mm 0.00 in0.0 mm 0.00 in0.0 mm
02:45 PM 73.6°F23.1°C 50.0°F10.0°C 43% 5.5 mph WSW8.9 kmh WSW 8.7 mph14.0 kmh 29.71 in1006.1 mb 0.00 in0.0 mm 0.00 in0.0 mm 0.00 in0.0 mm
02:50 PM 73.6°F23.1°C 50.0°F10.0°C 44% 4.9 mph WSW7.9 kmh WSW 7.4 mph11.9 kmh 29.71 in1006.1 mb 0.00 in0.0 mm 0.00 in0.0 mm 0.00 in0.0 mm
02:55 PM 73.6°F23.1°C 50.0°F10.0°C 44% 4.6 mph WSW7.4 kmh WSW 6.3 mph10.1 kmh 29.71 in1006.1 mb 0.00 in0.0 mm 0.00 in0.0 mm 0.00 in0.0 mm
03:00 PM 72.9°F22.7°C 50.0°F10.0°C 45% 4.9 mph WSW7.9 kmh WSW 6.3 mph10.1 kmh 29.71 in1006.1 mb 0.00 in0.0 mm 0.00 in0.0 mm 0.00 in0.0 mm
03:05 PM 71.6°F22.0°C 50.0°F10.0°C 46% 4.3 mph WSW6.9 kmh WSW 7.4 mph11.9 kmh 29.71 in1006.1 mb 0.00 in0.0 mm 0.00 in0.0 mm 0.00 in0.0 mm
03:10 PM 71.1°F21.7°C 50.0°F10.0°C 46% 4.2 mph W6.8 kmh W 7.4 mph11.9 kmh 29.71 in1006.1 mb 0.00 in0.0 mm 0.00 in0.0 mm 0.00 in0.0 mm
03:15 PM 70.5°F21.4°C 50.0°F10.0°C 47% 4.7 mph W7.6 kmh W 6.5 mph10.5 kmh 29.71 in1006.1 mb 0.00 in0.0 mm 0.00 in0.0 mm 0.00 in0.0 mm
03:20 PM 70.0°F21.1°C 50.0°F10.0°C 48% 4.8 mph W7.7 kmh W 6.5 mph10.5 kmh 29.74 in1007.1 mb 0.00 in0.0 mm 0.00 in0.0 mm 0.00 in0.0 mm
03:25 PM 70.2°F21.2°C 50.0°F10.0°C 49% 3.5 mph W5.6 kmh W 6.5 mph10.5 kmh 29.74 in1007.1 mb 0.00 in0.0 mm 0.00 in0.0 mm 0.00 in0.0 mm
03:30 PM 69.6°F20.9°C 50.0°F10.0°C 50% 2.9 mph WNW4.7 kmh WNW 6.5 mph10.5 kmh 29.74 in1007.1 mb 0.00 in0.0 mm 0.00 in0.0 mm 0.00 in0.0 mm
03:35 PM 69.8°F21.0°C 50.0°F10.0°C 49% 3.2 mph NW5.1 kmh NW 4.3 mph6.9 kmh 29.74 in1007.1 mb 0.00 in0.0 mm 0.00 in0.0 mm 0.00 in0.0 mm
03:40 PM 69.6°F20.9°C 50.0°F10.0°C 50% 3.4 mph NW5.5 kmh NW 4.3 mph6.9 kmh 29.74 in1007.1 mb 0.00 in0.0 mm 0.00 in0.0 mm 0.00 in0.0 mm
03:45 PM 69.3°F20.7°C 50.0°F10.0°C 50% 3.5 mph NW5.6 kmh NW 5.4 mph8.7 kmh 29.74 in1007.1 mb 0.00 in0.0 mm 0.00 in0.0 mm 0.00 in0.0 mm
03:50 PM 69.1°F20.6°C 50.0°F10.0°C 50% 3.4 mph NW5.5 kmh NW 5.4 mph8.7 kmh 29.74 in1007.1 mb 0.00 in0.0 mm 0.00 in0.0 mm 0.00 in0.0 mm
03:55 PM 69.1°F20.6°C 50.0°F10.0°C 50% 2.8 mph NW4.5 kmh NW 4.9 mph7.9 kmh 29.74 in1007.1 mb 0.00 in0.0 mm 0.00 in0.0 mm 0.00 in0.0 mm
04:00 PM 69.3°F20.7°C 50.0°F10.0°C 50% 2.4 mph NW3.9 kmh NW 4.3 mph6.9 kmh 29.74 in1007.1 mb 0.00 in0.0 mm 0.00 in0.0 mm 0.00 in0.0 mm
04:05 PM 69.3°F20.7°C 50.0°F10.0°C 50% 2.7 mph NW4.3 kmh NW 4.3 mph6.9 kmh 29.71 in1006.1 mb 0.00 in0.0 mm 0.00 in0.0 mm 0.00 in0.0 mm
04:10 PM 69.3°F20.7°C 50.0°F10.0°C 50% 2.4 mph NW3.9 kmh NW 3.6 mph5.8 kmh 29.71 in1006.1 mb 0.00 in0.0 mm 0.00 in0.0 mm 0.00 in0.0 mm
04:15 PM 69.1°F20.6°C 50.0°F10.0°C 50% 2.9 mph W4.7 kmh W 5.8 mph9.3 kmh 29.71 in1006.1 mb 0.00 in0.0 mm 0.00 in0.0 mm 0.00 in0.0 mm
04:20 PM 68.7°F20.4°C 50.0°F10.0°C 50% 4.3 mph SW6.9 kmh SW 7.6 mph12.2 kmh 29.71 in1006.1 mb 0.00 in0.0 mm 0.00 in0.0 mm 0.00 in0.0 mm
04:25 PM 68.4°F20.2°C 50.0°F10.0°C 50% 4.5 mph SW7.2 kmh SW 7.6 mph12.2 kmh 29.71 in1006.1 mb 0.00 in0.0 mm 0.00 in0.0 mm 0.00 in0.0 mm
04:30 PM 68.5°F20.3°C 50.0°F10.0°C 51% 3.8 mph WSW6.1 kmh WSW 5.4 mph8.7 kmh 29.71 in1006.1 mb 0.00 in0.0 mm 0.00 in0.0 mm 0.00 in0.0 mm
04:35 PM 68.7°F20.4°C 50.0°F10.0°C 51% 3.6 mph WSW5.8 kmh WSW 5.4 mph8.7 kmh 29.74 in1007.1 mb 0.00 in0.0 mm 0.00 in0.0 mm 0.00 in0.0 mm
04:40 PM 68.9°F20.5°C 50.0°F10.0°C 51% 3.0 mph WSW4.8 kmh WSW 5.4 mph8.7 kmh 29.74 in1007.1 mb 0.00 in0.0 mm 0.00 in0.0 mm 0.00 in0.0 mm
04:45 PM 68.5°F20.3°C 50.0°F10.0°C 51% 3.2 mph SW5.1 kmh SW 5.8 mph9.3 kmh 29.74 in1007.1 mb 0.00 in0.0 mm 0.00 in0.0 mm 0.00 in0.0 mm
04:50 PM 68.7°F20.4°C 50.0°F10.0°C 51% 3.3 mph WSW5.3 kmh WSW 5.8 mph9.3 kmh 29.71 in1006.1 mb 0.00 in0.0 mm 0.00 in0.0 mm 0.00 in0.0 mm
04:55 PM 68.9°F20.5°C 51.8°F11.0°C 52% 2.7 mph WSW4.3 kmh WSW 3.6 mph5.8 kmh 29.71 in1006.1 mb 0.00 in0.0 mm 0.00 in0.0 mm 0.00 in0.0 mm
05:00 PM 69.1°F20.6°C 51.8°F11.0°C 52% 2.2 mph WSW3.5 kmh WSW 3.6 mph5.8 kmh 29.71 in1006.1 mb 0.00 in0.0 mm 0.00 in0.0 mm 0.00 in0.0 mm
05:05 PM 69.3°F20.7°C 51.8°F11.0°C 52% 2.0 mph WSW3.2 kmh WSW 3.6 mph5.8 kmh 29.71 in1006.1 mb 0.00 in0.0 mm 0.00 in0.0 mm 0.00 in0.0 mm
05:10 PM 69.4°F20.8°C 51.8°F11.0°C 52% 1.9 mph WSW3.1 kmh WSW 3.6 mph5.8 kmh 29.71 in1006.1 mb 0.00 in0.0 mm 0.00 in0.0 mm 0.00 in0.0 mm
05:15 PM 69.4°F20.8°C 51.8°F11.0°C 52% 2.6 mph WNW4.2 kmh WNW 5.8 mph9.3 kmh 29.71 in1006.1 mb 0.00 in0.0 mm 0.00 in0.0 mm 0.00 in0.0 mm
05:20 PM 69.4°F20.8°C 51.8°F11.0°C 52% 2.6 mph W4.2 kmh W 5.8 mph9.3 kmh 29.71 in1006.1 mb 0.00 in0.0 mm 0.00 in0.0 mm 0.00 in0.0 mm
05:25 PM 69.8°F21.0°C 51.8°F11.0°C 51% 2.4 mph WNW3.9 kmh WNW 3.8 mph6.1 kmh 29.71 in1006.1 mb 0.00 in0.0 mm 0.00 in0.0 mm 0.00 in0.0 mm
05:30 PM 69.8°F21.0°C 51.8°F11.0°C 51% 2.8 mph WNW4.5 kmh WNW 4.0 mph6.4 kmh 29.71 in1006.1 mb 0.00 in0.0 mm 0.00 in0.0 mm 0.00 in0.0 mm
05:35 PM 69.4°F20.8°C 51.8°F11.0°C 52% 3.0 mph W4.8 kmh W 4.0 mph6.4 kmh 29.71 in1006.1 mb 0.00 in0.0 mm 0.00 in0.0 mm 0.00 in0.0 mm
05:40 PM 69.1°F20.6°C 51.8°F11.0°C 52% 2.7 mph WSW4.3 kmh WSW 3.8 mph6.1 kmh 29.71 in1006.1 mb 0.00 in0.0 mm 0.00 in0.0 mm 0.00 in0.0 mm
05:45 PM 68.7°F20.4°C 51.8°F11.0°C 53% 2.2 mph WSW3.5 kmh WSW 3.6 mph5.8 kmh 29.71 in1006.1 mb 0.00 in0.0 mm 0.00 in0.0 mm 0.00 in0.0 mm
05:50 PM 69.1°F20.6°C 51.8°F11.0°C 53% 2.5 mph WSW4.0 kmh WSW 4.3 mph6.9 kmh 29.71 in1006.1 mb 0.00 in0.0 mm 0.00 in0.0 mm 0.00 in0.0 mm
05:55 PM 69.1°F20.6°C 51.8°F11.0°C 52% 3.2 mph WSW5.1 kmh WSW 4.7 mph7.6 kmh 29.71 in1006.1 mb 0.00 in0.0 mm 0.00 in0.0 mm 0.00 in0.0 mm
06:00 PM 69.1°F20.6°C 51.8°F11.0°C 53% 3.2 mph WSW5.1 kmh WSW 4.7 mph7.6 kmh 29.71 in1006.1 mb 0.00 in0.0 mm 0.00 in0.0 mm 0.00 in0.0 mm
06:05 PM 68.7°F20.4°C 51.8°F11.0°C 53% 2.4 mph WSW3.9 kmh WSW 3.8 mph6.1 kmh 29.71 in1006.1 mb 0.00 in0.0 mm 0.00 in0.0 mm 0.00 in0.0 mm
06:10 PM 68.5°F20.3°C 51.8°F11.0°C 53% 2.8 mph WSW4.5 kmh WSW 5.6 mph9.0 kmh 29.71 in1006.1 mb 0.00 in0.0 mm 0.00 in0.0 mm 0.00 in0.0 mm
06:15 PM 68.4°F20.2°C 51.8°F11.0°C 53% 3.5 mph WSW5.6 kmh WSW 5.6 mph9.0 kmh 29.71 in1006.1 mb 0.00 in0.0 mm 0.00 in0.0 mm 0.00 in0.0 mm
06:20 PM 68.2°F20.1°C 50.0°F10.0°C 53% 2.6 mph SW4.2 kmh SW 5.4 mph8.7 kmh 29.71 in1006.1 mb 0.00 in0.0 mm 0.00 in0.0 mm 0.00 in0.0 mm
06:25 PM 68.5°F20.3°C 51.8°F11.0°C 53% 2.0 mph SSW3.2 kmh SSW 3.4 mph5.5 kmh 29.71 in1006.1 mb 0.00 in0.0 mm 0.00 in0.0 mm 0.00 in0.0 mm
06:30 PM 68.7°F20.4°C 51.8°F11.0°C 53% 2.9 mph SW4.7 kmh SW 5.8 mph9.3 kmh 29.71 in1006.1 mb 0.00 in0.0 mm 0.00 in0.0 mm 0.00 in0.0 mm
06:35 PM 68.7°F20.4°C 51.8°F11.0°C 53% 3.2 mph SW5.1 kmh SW 5.8 mph9.3 kmh 29.71 in1006.1 mb 0.00 in0.0 mm 0.00 in0.0 mm 0.00 in0.0 mm
06:40 PM 68.9°F20.5°C 51.8°F11.0°C 52% 2.3 mph SW3.7 kmh SW 4.9 mph7.9 kmh 29.71 in1006.1 mb 0.00 in0.0 mm 0.00 in0.0 mm 0.00 in0.0 mm
06:45 PM 68.7°F20.4°C 50.0°F10.0°C 52% 2.9 mph WSW4.7 kmh WSW 6.0 mph9.7 kmh 29.71 in1006.1 mb 0.00 in0.0 mm 0.00 in0.0 mm 0.00 in0.0 mm
06:50 PM 68.7°F20.4°C 51.8°F11.0°C 53% 3.1 mph WSW5.0 kmh WSW 6.0 mph9.7 kmh 29.71 in1006.1 mb 0.00 in0.0 mm 0.00 in0.0 mm 0.00 in0.0 mm
06:55 PM 68.2°F20.1°C 50.0°F10.0°C 53% 2.7 mph SW4.3 kmh SW 4.3 mph6.9 kmh 29.71 in1006.1 mb 0.00 in0.0 mm 0.00 in0.0 mm 0.00 in0.0 mm
07:00 PM 67.8°F19.9°C 50.0°F10.0°C 53% 2.8 mph SW4.5 kmh SW 4.7 mph7.6 kmh 29.71 in1006.1 mb 0.00 in0.0 mm 0.00 in0.0 mm 0.00 in0.0 mm
07:05 PM 67.8°F19.9°C 50.0°F10.0°C 53% 2.0 mph SW3.2 kmh SW 4.7 mph7.6 kmh 29.71 in1006.1 mb 0.00 in0.0 mm 0.00 in0.0 mm 0.00 in0.0 mm
07:10 PM 67.6°F19.8°C 50.0°F10.0°C 54% 0.8 mph SW1.3 kmh SW 3.6 mph5.8 kmh 29.71 in1006.1 mb 0.00 in0.0 mm 0.00 in0.0 mm 0.00 in0.0 mm
07:15 PM 67.8°F19.9°C 51.8°F11.0°C 54% 0.5 mph SW0.8 kmh SW 3.1 mph5.0 kmh 29.71 in1006.1 mb 0.00 in0.0 mm 0.00 in0.0 mm 0.00 in0.0 mm
07:20 PM 67.6°F19.8°C 50.0°F10.0°C 54% 1.1 mph SSW1.8 kmh SSW 3.1 mph5.0 kmh 29.71 in1006.1 mb 0.00 in0.0 mm 0.00 in0.0 mm 0.00 in0.0 mm
07:25 PM 67.6°F19.8°C 50.0°F10.0°C 53% 1.7 mph SW2.7 kmh SW 2.9 mph4.7 kmh 29.71 in1006.1 mb 0.00 in0.0 mm 0.00 in0.0 mm 0.00 in0.0 mm
07:30 PM 67.5°F19.7°C 50.0°F10.0°C 54% 1.7 mph SW2.7 kmh SW 3.1 mph5.0 kmh 29.71 in1006.1 mb 0.00 in0.0 mm 0.00 in0.0 mm 0.00 in0.0 mm
07:35 PM 67.3°F19.6°C 50.0°F10.0°C 54% 1.8 mph SW2.9 kmh SW 3.1 mph5.0 kmh 29.71 in1006.1 mb 0.00 in0.0 mm 0.00 in0.0 mm 0.00 in0.0 mm
07:40 PM 67.3°F19.6°C 50.0°F10.0°C 53% 1.7 mph SW2.7 kmh SW 2.9 mph4.7 kmh 29.71 in1006.1 mb 0.00 in0.0 mm 0.00 in0.0 mm 0.00 in0.0 mm
07:45 PM 66.9°F19.4°C 50.0°F10.0°C 54% 1.0 mph WSW1.6 kmh WSW 2.7 mph4.3 kmh 29.71 in1006.1 mb 0.00 in0.0 mm 0.00 in0.0 mm 0.00 in0.0 mm
07:50 PM 66.4°F19.1°C 50.0°F10.0°C 55% 0.6 mph WSW1.0 kmh WSW 2.0 mph3.2 kmh 29.71 in1006.1 mb 0.00 in0.0 mm 0.00 in0.0 mm 0.00 in0.0 mm
07:55 PM 66.0°F18.9°C 50.0°F10.0°C 56% 0.5 mph WSW0.8 kmh WSW 2.0 mph3.2 kmh 29.71 in1006.1 mb 0.00 in0.0 mm 0.00 in0.0 mm 0.00 in0.0 mm
08:00 PM 65.7°F18.7°C 50.0°F10.0°C 57% 0.5 mph WSW0.8 kmh WSW 1.6 mph2.6 kmh 29.71 in1006.1 mb 0.00 in0.0 mm 0.00 in0.0 mm 0.00 in0.0 mm
08:05 PM 65.3°F18.5°C 50.0°F10.0°C 57% 0.5 mph WSW0.8 kmh WSW 1.6 mph2.6 kmh 29.71 in1006.1 mb 0.00 in0.0 mm 0.00 in0.0 mm 0.00 in0.0 mm
08:10 PM 64.9°F18.3°C 50.0°F10.0°C 58% 0.2 mph SW0.3 kmh SW 1.6 mph2.6 kmh 29.71 in1006.1 mb 0.00 in0.0 mm 0.00 in0.0 mm 0.00 in0.0 mm
08:15 PM 64.6°F18.1°C 50.0°F10.0°C 58% Calm Calm -- 29.71 in1006.1 mb 0.00 in0.0 mm 0.00 in0.0 mm 0.00 in0.0 mm
08:20 PM 64.4°F18.0°C 50.0°F10.0°C 59% Calm Calm -- 29.71 in1006.1 mb 0.00 in0.0 mm 0.00 in0.0 mm 0.00 in0.0 mm
08:25 PM 63.9°F17.7°C 50.0°F10.0°C 59% Calm Calm -- 29.71 in1006.1 mb 0.00 in0.0 mm 0.00 in0.0 mm 0.00 in0.0 mm
08:30 PM 63.5°F17.5°C 50.0°F10.0°C 59% Calm Calm -- 29.71 in1006.1 mb 0.00 in0.0 mm 0.00 in0.0 mm 0.00 in0.0 mm
08:35 PM 63.1°F17.3°C 50.0°F10.0°C 60% Calm Calm -- 29.71 in1006.1 mb 0.00 in0.0 mm 0.00 in0.0 mm 0.00 in0.0 mm
08:40 PM 63.0°F17.2°C 50.0°F10.0°C 60% Calm Calm -- 29.71 in1006.1 mb 0.00 in0.0 mm 0.00 in0.0 mm 0.00 in0.0 mm
08:45 PM 62.8°F17.1°C 48.2°F9.0°C 60% Calm Calm 0.9 mph1.4 kmh 29.71 in1006.1 mb 0.00 in0.0 mm 0.00 in0.0 mm 0.00 in0.0 mm
08:50 PM 62.2°F16.8°C 48.2°F9.0°C 61% 0.2 mph WSW0.3 kmh WSW 0.9 mph1.4 kmh 29.71 in1006.1 mb 0.00 in0.0 mm 0.00 in0.0 mm 0.00 in0.0 mm
08:55 PM 62.1°F16.7°C 48.2°F9.0°C 62% 0.1 mph WSW0.2 kmh WSW 0.9 mph1.4 kmh 29.71 in1006.1 mb 0.00 in0.0 mm 0.00 in0.0 mm 0.00 in0.0 mm
09:00 PM 61.9°F16.6°C 48.2°F9.0°C 62% Calm Calm -- 29.71 in1006.1 mb 0.00 in0.0 mm 0.00 in0.0 mm 0.00 in0.0 mm
09:05 PM 61.5°F16.4°C 48.2°F9.0°C 63% Calm Calm -- 29.71 in1006.1 mb 0.00 in0.0 mm 0.00 in0.0 mm 0.00 in0.0 mm
09:10 PM 61.3°F16.3°C 48.2°F9.0°C 63% Calm Calm -- 29.71 in1006.1 mb 0.00 in0.0 mm 0.00 in0.0 mm 0.00 in0.0 mm
09:15 PM 61.0°F16.1°C 48.2°F9.0°C 63% Calm Calm -- 29.71 in1006.1 mb 0.00 in0.0 mm 0.00 in0.0 mm 0.00 in0.0 mm
09:20 PM 61.0°F16.1°C 48.2°F9.0°C 64% Calm Calm -- 29.71 in1006.1 mb 0.00 in0.0 mm 0.00 in0.0 mm 0.00 in0.0 mm
09:25 PM 60.8°F16.0°C 48.2°F9.0°C 64% 0.2 mph NE0.3 kmh NE 1.3 mph2.1 kmh 29.71 in1006.1 mb 0.00 in0.0 mm 0.00 in0.0 mm 0.00 in0.0 mm
09:30 PM 60.4°F15.8°C 48.2°F9.0°C 64% 0.2 mph NE0.3 kmh NE 1.3 mph2.1 kmh 29.71 in1006.1 mb 0.00 in0.0 mm 0.00 in0.0 mm 0.00 in0.0 mm
09:35 PM 60.3°F15.7°C 48.2°F9.0°C 64% 0.3 mph NNE0.5 kmh NNE 1.1 mph1.8 kmh 29.71 in1006.1 mb 0.00 in0.0 mm 0.00 in0.0 mm 0.00 in0.0 mm
09:40 PM 60.3°F15.7°C 48.2°F9.0°C 64% 0.2 mph NNE0.3 kmh NNE 1.1 mph1.8 kmh 29.71 in1006.1 mb 0.00 in0.0 mm 0.00 in0.0 mm 0.00 in0.0 mm
09:45 PM 59.5°F15.3°C 48.2°F9.0°C 64% Calm Calm -- 29.71 in1006.1 mb 0.00 in0.0 mm 0.00 in0.0 mm 0.00 in0.0 mm
09:50 PM 59.5°F15.3°C 48.2°F9.0°C 65% 0.2 mph NNE0.3 kmh NNE 1.1 mph1.8 kmh 29.71 in1006.1 mb 0.00 in0.0 mm 0.00 in0.0 mm 0.00 in0.0 mm
09:55 PM 59.4°F15.2°C 48.2°F9.0°C 65% 0.4 mph NE0.6 kmh NE 1.1 mph1.8 kmh 29.71 in1006.1 mb 0.00 in0.0 mm 0.00 in0.0 mm 0.00 in0.0 mm
10:00 PM 59.2°F15.1°C 48.2°F9.0°C 65% 0.6 mph NE1.0 kmh NE 1.6 mph2.6 kmh 29.71 in1006.1 mb 0.00 in0.0 mm 0.00 in0.0 mm 0.00 in0.0 mm
10:05 PM 58.8°F14.9°C 48.2°F9.0°C 65% 0.4 mph NNE0.6 kmh NNE 1.6 mph2.6 kmh 29.71 in1006.1 mb 0.00 in0.0 mm 0.00 in0.0 mm 0.00 in0.0 mm
10:10 PM 59.0°F15.0°C 48.2°F9.0°C 65% 1.3 mph E2.1 kmh E 3.1 mph5.0 kmh 29.71 in1006.1 mb 0.00 in0.0 mm 0.00 in0.0 mm 0.00 in0.0 mm
10:15 PM 58.6°F14.8°C 48.2°F9.0°C 65% 1.9 mph E3.1 kmh E 3.4 mph5.5 kmh 29.71 in1006.1 mb 0.00 in0.0 mm 0.00 in0.0 mm 0.00 in0.0 mm
10:20 PM 58.6°F14.8°C 48.2°F9.0°C 66% 0.8 mph ESE1.3 kmh ESE 3.4 mph5.5 kmh 29.71 in1006.1 mb 0.00 in0.0 mm 0.00 in0.0 mm 0.00 in0.0 mm
10:25 PM 58.5°F14.7°C 48.2°F9.0°C 66% 0.4 mph E0.6 kmh E 2.0 mph3.2 kmh 29.71 in1006.1 mb 0.00 in0.0 mm 0.00 in0.0 mm 0.00 in0.0 mm
10:30 PM 58.3°F14.6°C 48.2°F9.0°C 66% 1.2 mph ENE1.9 kmh ENE 2.2 mph3.5 kmh 29.71 in1006.1 mb 0.00 in0.0 mm 0.00 in0.0 mm 0.00 in0.0 mm
10:35 PM 58.1°F14.5°C 48.2°F9.0°C 66% 1.1 mph NE1.8 kmh NE 2.5 mph4.0 kmh 29.71 in1006.1 mb 0.00 in0.0 mm 0.00 in0.0 mm 0.00 in0.0 mm
10:40 PM 58.1°F14.5°C 48.2°F9.0°C 67% 0.9 mph NE1.4 kmh NE 2.5 mph4.0 kmh 29.71 in1006.1 mb 0.00 in0.0 mm 0.00 in0.0 mm 0.00 in0.0 mm
10:45 PM 57.6°F14.2°C 46.4°F8.0°C 66% 1.2 mph NE1.9 kmh NE 2.0 mph3.2 kmh 29.71 in1006.1 mb 0.00 in0.0 mm 0.00 in0.0 mm 0.00 in0.0 mm
10:50 PM 57.6°F14.2°C 48.2°F9.0°C 67% 1.7 mph ENE2.7 kmh ENE 2.7 mph4.3 kmh 29.71 in1006.1 mb 0.00 in0.0 mm 0.00 in0.0 mm 0.00 in0.0 mm
10:55 PM 57.6°F14.2°C 46.4°F8.0°C 66% 1.9 mph E3.1 kmh E 3.1 mph5.0 kmh 29.71 in1006.1 mb 0.00 in0.0 mm 0.00 in0.0 mm 0.00 in0.0 mm
11:00 PM 57.6°F14.2°C 48.2°F9.0°C 67% 1.8 mph E2.9 kmh E 3.1 mph5.0 kmh 29.71 in1006.1 mb 0.00 in0.0 mm 0.00 in0.0 mm 0.00 in0.0 mm
11:05 PM 57.4°F14.1°C 46.4°F8.0°C 67% 1.3 mph E2.1 kmh E 2.5 mph4.0 kmh 29.71 in1006.1 mb 0.00 in0.0 mm 0.00 in0.0 mm 0.00 in0.0 mm
11:10 PM 57.2°F14.0°C 46.4°F8.0°C 67% 0.6 mph ENE1.0 kmh ENE 1.1 mph1.8 kmh 29.71 in1006.1 mb 0.00 in0.0 mm 0.00 in0.0 mm 0.00 in0.0 mm
11:15 PM 57.2°F14.0°C 46.4°F8.0°C 67% 0.2 mph NE0.3 kmh NE 0.9 mph1.4 kmh 29.71 in1006.1 mb 0.00 in0.0 mm 0.00 in0.0 mm 0.00 in0.0 mm
11:20 PM 57.0°F13.9°C 46.4°F8.0°C 67% 0.3 mph N0.5 kmh N 0.9 mph1.4 kmh 29.71 in1006.1 mb 0.00 in0.0 mm 0.00 in0.0 mm 0.00 in0.0 mm
11:25 PM 56.8°F13.8°C 46.4°F8.0°C 67% 0.3 mph N0.5 kmh N 0.9 mph1.4 kmh 29.71 in1006.1 mb 0.00 in0.0 mm 0.00 in0.0 mm 0.00 in0.0 mm
11:30 PM 56.5°F13.6°C 46.4°F8.0°C 67% 0.6 mph NE1.0 kmh NE 2.5 mph4.0 kmh 29.71 in1006.1 mb 0.00 in0.0 mm 0.00 in0.0 mm 0.00 in0.0 mm
11:35 PM 56.5°F13.6°C 46.4°F8.0°C 68% 0.5 mph ENE0.8 kmh ENE 2.5 mph4.0 kmh 29.71 in1006.1 mb 0.00 in0.0 mm 0.00 in0.0 mm 0.00 in0.0 mm
11:40 PM 56.3°F13.5°C 46.4°F8.0°C 68% 0.2 mph NE0.3 kmh NE 0.9 mph1.4 kmh 29.71 in1006.1 mb 0.00 in0.0 mm 0.00 in0.0 mm 0.00 in0.0 mm
11:45 PM 56.3°F13.5°C 46.4°F8.0°C 68% 0.4 mph NE0.6 kmh NE 0.9 mph1.4 kmh 29.71 in1006.1 mb 0.00 in0.0 mm 0.00 in0.0 mm 0.00 in0.0 mm
11:50 PM 55.9°F13.3°C 46.4°F8.0°C 67% 0.2 mph NNE0.3 kmh NNE 0.9 mph1.4 kmh 29.71 in1006.1 mb 0.00 in0.0 mm 0.00 in0.0 mm 0.00 in0.0 mm
11:55 PM 55.9°F13.3°C 46.4°F8.0°C 68% 0.1 mph N0.2 kmh N 0.9 mph1.4 kmh 29.71 in1006.1 mb 0.00 in0.0 mm 0.00 in0.0 mm 0.00 in0.0 mm